createdAt,value
2017-11-18T00:00:15.274Z,43.26
2017-11-18T00:02:44.411Z,43.25
2017-11-18T00:05:13.564Z,43.25
2017-11-18T00:07:42.808Z,43.28
2017-11-18T00:10:12.284Z,43.40
2017-11-18T00:12:41.408Z,43.40
2017-11-18T00:15:10.616Z,43.44
2017-11-18T00:17:39.742Z,43.49
2017-11-18T00:20:08.933Z,43.54
2017-11-18T00:22:38.401Z,43.59
2017-11-18T00:25:07.429Z,43.60
2017-11-18T00:27:36.628Z,43.61
2017-11-18T00:30:05.938Z,43.64
2017-11-18T00:32:35.281Z,43.62
2017-11-18T00:35:04.412Z,43.70
2017-11-18T00:37:33.620Z,43.78
2017-11-18T00:40:03.333Z,43.80
2017-11-18T00:42:32.533Z,43.77
2017-11-18T00:45:03.265Z,43.80
2017-11-18T00:47:32.417Z,43.83
2017-11-18T00:50:01.765Z,43.86
2017-11-18T00:52:31.250Z,43.86
2017-11-18T00:55:00.428Z,43.84
2017-11-18T00:57:29.539Z,43.86
2017-11-18T00:59:58.650Z,43.88
2017-11-18T01:02:27.934Z,43.90
2017-11-18T01:04:57.373Z,43.87
2017-11-18T01:07:26.593Z,43.84
2017-11-18T01:09:55.925Z,43.82
2017-11-18T01:12:25.335Z,43.95
2017-11-18T01:14:54.679Z,44.04
2017-11-18T01:17:24.061Z,44.13
2017-11-18T01:19:53.537Z,44.24
2017-11-18T01:22:22.696Z,44.30
2017-11-18T01:24:51.965Z,44.31
2017-11-18T01:27:21.352Z,44.38
2017-11-18T01:29:50.580Z,44.42
2017-11-18T01:32:19.681Z,44.46
2017-11-18T01:34:48.942Z,44.49
2017-11-18T01:37:18.380Z,44.50
2017-11-18T01:39:47.550Z,44.47
2017-11-18T01:42:16.669Z,44.47
2017-11-18T01:44:45.941Z,44.51
2017-11-18T01:47:15.297Z,44.52
2017-11-18T01:49:44.408Z,44.43
2017-11-18T01:52:13.562Z,44.34
2017-11-18T01:54:42.629Z,44.26
2017-11-18T01:57:11.940Z,44.21
2017-11-18T01:59:41.366Z,44.14
2017-11-18T02:02:12.555Z,44.09
2017-11-18T02:04:41.649Z,44.04
2017-11-18T02:07:10.998Z,44.02
2017-11-18T02:09:40.299Z,44.02
2017-11-18T02:12:09.514Z,44.04
2017-11-18T02:14:38.668Z,44.04
2017-11-18T02:17:08.229Z,44.02
2017-11-18T02:19:37.471Z,44.00
2017-11-18T02:22:07.428Z,43.99
2017-11-18T02:24:36.696Z,43.97
2017-11-18T02:27:06.018Z,44.07
2017-11-18T02:29:35.441Z,44.20
2017-11-18T02:32:04.786Z,44.29
2017-11-18T02:34:33.304Z,44.34
2017-11-18T02:37:02.507Z,44.37
2017-11-18T02:39:31.625Z,44.39
2017-11-18T02:42:01.252Z,44.40
2017-11-18T02:44:30.444Z,44.42
2017-11-18T02:46:59.561Z,44.44
2017-11-18T02:49:29.196Z,44.49
2017-11-18T02:51:58.485Z,44.54
2017-11-18T02:54:27.618Z,44.56
2017-11-18T02:56:57.284Z,44.56
2017-11-18T02:59:26.656Z,44.61
2017-11-18T03:01:56.280Z,44.62
2017-11-18T03:04:25.426Z,44.63
2017-11-18T03:06:54.642Z,44.64
2017-11-18T03:09:24.345Z,44.65
2017-11-18T03:11:53.470Z,44.64
2017-11-18T03:14:22.587Z,44.64
2017-11-18T03:16:51.937Z,44.64
2017-11-18T03:19:21.292Z,44.61
2017-11-18T03:21:50.396Z,44.61
2017-11-18T03:24:19.555Z,44.62
2017-11-18T03:26:48.744Z,44.63
2017-11-18T03:29:18.245Z,44.67
2017-11-18T03:31:47.417Z,44.68
2017-11-18T03:34:16.560Z,44.68
2017-11-18T03:36:45.757Z,44.72
2017-11-18T03:39:15.290Z,44.72
2017-11-18T03:41:44.561Z,44.73
2017-11-18T03:44:14.750Z,44.72
2017-11-18T03:46:44.280Z,44.72
2017-11-18T03:49:14.469Z,44.73
2017-11-18T03:51:43.590Z,44.72
2017-11-18T03:54:12.645Z,44.75
2017-11-18T03:56:41.938Z,44.85
2017-11-18T03:59:11.357Z,44.81
2017-11-18T04:01:40.625Z,44.83
2017-11-18T04:04:09.937Z,44.79
2017-11-18T04:06:39.413Z,44.80
2017-11-18T04:09:08.584Z,44.84
2017-11-18T04:11:40.291Z,44.87
2017-11-18T04:14:09.420Z,44.90
2017-11-18T04:16:38.545Z,44.89
2017-11-18T04:19:07.740Z,44.83
2017-11-18T04:21:37.289Z,44.84
2017-11-18T04:24:06.405Z,44.83
2017-11-18T04:26:35.549Z,44.81
2017-11-18T04:29:04.733Z,44.79
2017-11-18T04:31:34.319Z,44.77
2017-11-18T04:34:03.429Z,44.80
2017-11-18T04:36:32.620Z,44.78
2017-11-18T04:39:01.937Z,44.80
2017-11-18T04:41:31.343Z,44.79
2017-11-18T04:44:00.440Z,44.78
2017-11-18T04:46:29.620Z,44.77
2017-11-18T04:48:59.290Z,44.79
2017-11-18T04:51:28.436Z,44.77
2017-11-18T04:53:57.522Z,44.77
2017-11-18T04:56:26.728Z,44.83
2017-11-18T04:58:55.941Z,44.83
2017-11-18T05:01:25.286Z,44.85
2017-11-18T05:03:54.434Z,44.83
2017-11-18T05:06:23.561Z,44.73
2017-11-18T05:08:52.662Z,44.69
2017-11-18T05:11:22.018Z,44.58
2017-11-18T05:13:51.404Z,44.32
2017-11-18T05:16:20.576Z,44.23
2017-11-18T05:18:49.633Z,44.04
2017-11-18T05:21:19.456Z,43.74
2017-11-18T05:23:48.526Z,43.50
2017-11-18T05:26:17.646Z,43.07
2017-11-18T05:28:47.282Z,42.74
2017-11-18T05:31:16.421Z,42.56
2017-11-18T05:33:45.721Z,42.50
2017-11-18T05:36:15.300Z,42.46
2017-11-18T05:38:44.413Z,42.43
2017-11-18T05:41:13.537Z,42.48
2017-11-18T05:43:42.737Z,42.48
2017-11-18T05:46:12.292Z,42.34
2017-11-18T05:48:41.429Z,42.21
2017-11-18T05:51:10.627Z,42.10
2017-11-18T05:53:39.954Z,42.10
2017-11-18T05:56:09.255Z,42.09
2017-11-18T05:58:38.420Z,42.02
2017-11-18T06:01:07.725Z,41.93
2017-11-18T06:03:37.025Z,41.90
2017-11-18T06:06:06.438Z,41.98
2017-11-18T06:08:35.725Z,41.99
2017-11-18T06:11:05.029Z,41.92
2017-11-18T06:13:34.413Z,41.94
2017-11-18T06:16:03.461Z,42.00
2017-11-18T06:18:32.752Z,42.06
2017-11-18T06:21:02.382Z,42.04
2017-11-18T06:23:31.556Z,42.12
2017-11-18T06:26:00.753Z,42.18
2017-11-18T06:28:30.285Z,42.21
2017-11-18T06:30:59.445Z,42.22
2017-11-18T06:33:28.562Z,42.20
2017-11-18T06:35:57.726Z,42.21
2017-11-18T06:38:27.029Z,42.24
2017-11-18T06:40:56.407Z,42.29
2017-11-18T06:43:25.581Z,42.30
2017-11-18T06:45:54.646Z,42.25
2017-11-18T06:48:24.029Z,42.30
2017-11-18T06:50:53.485Z,42.30
2017-11-18T06:53:22.636Z,42.31
2017-11-18T06:55:51.951Z,42.34
2017-11-18T06:58:21.421Z,42.32
2017-11-18T07:00:50.589Z,42.37
2017-11-18T07:03:19.765Z,42.33
2017-11-18T07:05:49.255Z,42.41
2017-11-18T07:08:18.428Z,42.40
2017-11-18T07:10:47.580Z,42.47
2017-11-18T07:15:34.415Z,42.47
2017-11-18T07:18:03.536Z,42.48
2017-11-18T07:20:32.600Z,42.47
2017-11-18T07:23:01.675Z,42.46
2017-11-18T07:25:30.945Z,42.44
2017-11-18T07:28:06.704Z,42.47
2017-11-18T07:30:35.996Z,42.43
2017-11-18T07:33:05.400Z,42.44
2017-11-18T07:35:34.435Z,42.46
2017-11-18T07:38:03.539Z,42.43
2017-11-18T07:40:32.685Z,42.39
2017-11-18T07:43:02.295Z,42.37
2017-11-18T07:45:31.430Z,42.38
2017-11-18T07:48:00.539Z,42.35
2017-11-18T07:50:29.714Z,42.33
2017-11-18T07:52:59.259Z,42.31
2017-11-18T07:55:28.420Z,42.27
2017-11-18T07:57:57.632Z,42.15
2017-11-18T08:00:26.940Z,42.15
2017-11-18T08:02:56.252Z,42.16
2017-11-18T08:05:25.441Z,42.07
2017-11-18T08:07:54.508Z,42.00
2017-11-18T08:10:23.543Z,42.00
2017-11-18T08:12:52.941Z,41.95
2017-11-18T08:15:22.244Z,41.94
2017-11-18T08:17:51.499Z,41.92
2017-11-18T08:20:20.716Z,41.92
2017-11-18T08:22:49.984Z,41.93
2017-11-18T08:25:19.370Z,41.89
2017-11-18T08:28:56.735Z,41.77
2017-11-18T08:31:26.266Z,41.70
2017-11-18T08:33:55.425Z,41.65
2017-11-18T08:36:33.392Z,41.58
2017-11-18T08:39:02.498Z,41.39
2017-11-18T08:41:31.645Z,41.52
2017-11-18T08:44:01.493Z,41.49
2017-11-18T08:46:31.481Z,41.53
2017-11-18T08:49:00.648Z,41.66
2017-11-18T08:51:30.287Z,41.52
2017-11-18T08:53:59.441Z,41.52
2017-11-18T08:56:30.524Z,41.79
2017-11-18T08:58:59.837Z,42.00
2017-11-18T09:01:29.471Z,42.16
2017-11-18T09:03:58.548Z,42.05
2017-11-18T09:06:28.277Z,41.95
2017-11-18T09:08:58.549Z,41.61
2017-11-18T09:11:28.275Z,40.81
2017-11-18T09:13:57.466Z,40.12
2017-11-18T09:16:26.649Z,39.47
2017-11-18T09:18:55.944Z,38.89
2017-11-18T09:21:25.320Z,38.08
2017-11-18T09:23:54.505Z,37.75
2017-11-18T09:26:23.541Z,37.88
2017-11-18T09:28:52.704Z,37.58
2017-11-18T09:31:21.943Z,37.39
2017-11-18T09:33:51.284Z,37.94
2017-11-18T09:36:20.828Z,38.46
2017-11-18T09:38:50.409Z,38.37
2017-11-18T09:41:19.630Z,38.88
2017-11-18T09:43:48.989Z,39.04
2017-11-18T09:48:41.064Z,39.11
2017-11-18T09:51:45.536Z,39.19
2017-11-18T09:54:34.581Z,39.38
2017-11-18T09:58:41.793Z,39.72
2017-11-18T10:01:10.469Z,39.60
2017-11-18T10:03:40.425Z,39.59
2017-11-18T10:06:09.660Z,39.61
2017-11-18T10:10:39.417Z,39.39
2017-11-18T10:13:08.532Z,38.95
2017-11-18T10:15:37.953Z,38.24
2017-11-18T10:18:07.392Z,37.69
2017-11-18T10:20:36.460Z,37.37
2017-11-18T10:23:05.520Z,37.26
2017-11-18T10:25:34.552Z,36.99
2017-11-18T10:28:03.888Z,37.00
2017-11-18T10:30:33.253Z,37.02
2017-11-18T10:33:02.417Z,37.23
2017-11-18T10:35:31.468Z,37.55
2017-11-18T10:38:00.524Z,37.84
2017-11-18T10:40:29.609Z,38.11
2017-11-18T10:42:58.749Z,38.32
2017-11-18T10:45:28.300Z,38.59
2017-11-18T10:47:57.417Z,38.88
2017-11-18T10:50:26.653Z,39.14
2017-11-18T10:52:56.173Z,39.37
2017-11-18T10:55:25.433Z,39.58
2017-11-18T10:57:54.566Z,39.76
2017-11-18T11:00:23.763Z,39.97
2017-11-18T11:02:53.300Z,40.06
2017-11-18T11:05:22.505Z,40.20
2017-11-18T11:07:51.546Z,40.25
2017-11-18T11:10:20.629Z,40.38
2017-11-18T11:12:50.271Z,40.60
2017-11-18T11:15:19.427Z,40.60
2017-11-18T11:17:48.557Z,40.60
2017-11-18T11:23:18.275Z,40.56
2017-11-18T11:28:10.560Z,40.63
2017-11-18T11:30:39.997Z,40.68
2017-11-18T11:33:09.326Z,40.74
2017-11-18T11:35:38.601Z,40.79
2017-11-18T11:38:07.698Z,40.86
2017-11-18T11:40:36.951Z,40.94
2017-11-18T11:43:06.592Z,40.99
2017-11-18T11:45:35.952Z,41.03
2017-11-18T11:48:05.436Z,41.10
2017-11-18T11:50:34.692Z,41.16
2017-11-18T11:53:03.939Z,41.21
2017-11-18T11:57:09.292Z,41.15
2017-11-18T11:59:38.451Z,41.14
2017-11-18T12:02:07.549Z,41.19
2017-11-18T12:04:36.708Z,41.21
2017-11-18T12:07:05.985Z,41.35
2017-11-18T12:09:35.344Z,41.41
2017-11-18T12:12:04.491Z,41.37
2017-11-18T12:14:33.556Z,41.28
2017-11-18T12:17:02.937Z,41.25
2017-11-18T12:19:32.943Z,41.19
2017-11-18T12:22:02.296Z,41.14
2017-11-18T12:24:31.433Z,41.08
2017-11-18T12:27:00.540Z,41.03
2017-11-18T12:29:29.760Z,40.99
2017-11-18T12:34:41.495Z,40.99
2017-11-18T12:37:10.947Z,40.96
2017-11-18T12:39:40.410Z,40.87
2017-11-18T12:42:09.553Z,40.89
2017-11-18T12:44:40.245Z,40.86
2017-11-18T12:47:09.429Z,40.85
2017-11-18T12:49:38.967Z,40.85
2017-11-18T12:52:08.300Z,40.83
2017-11-18T12:54:37.433Z,40.85
2017-11-18T12:57:06.613Z,40.85
2017-11-18T12:59:36.253Z,40.92
2017-11-18T13:02:05.439Z,41.00
2017-11-18T13:04:34.679Z,40.97
2017-11-18T13:07:03.954Z,41.02
2017-11-18T13:09:33.292Z,41.03
2017-11-18T13:12:02.568Z,41.07
2017-11-18T13:14:31.946Z,41.07
2017-11-18T13:17:01.291Z,41.04
2017-11-18T13:19:30.426Z,41.20
2017-11-18T13:21:59.525Z,41.42
2017-11-18T13:24:28.527Z,41.51
2017-11-18T13:26:58.056Z,41.54
2017-11-18T13:29:27.519Z,41.51
2017-11-18T13:31:56.584Z,41.53
2017-11-18T13:34:25.953Z,41.52
2017-11-18T13:36:55.326Z,41.58
2017-11-18T13:39:24.598Z,41.60
2017-11-18T13:41:53.715Z,41.68
2017-11-18T13:44:23.175Z,41.68
2017-11-18T13:46:52.429Z,41.66
2017-11-18T13:49:21.676Z,41.62
2017-11-18T13:51:51.053Z,41.61
2017-11-18T13:54:20.473Z,41.58
2017-11-18T13:56:49.586Z,41.52
2017-11-18T13:59:19.251Z,41.51
2017-11-18T14:01:48.433Z,41.44
2017-11-18T14:04:17.555Z,41.43
2017-11-18T14:06:46.733Z,41.39
2017-11-18T14:09:16.256Z,41.38
2017-11-18T14:11:45.468Z,41.36
2017-11-18T14:15:05.403Z,41.35
2017-11-18T14:17:34.721Z,41.37
2017-11-18T14:20:04.358Z,41.37
2017-11-18T14:22:33.592Z,41.36
2017-11-18T14:25:02.682Z,41.39
2017-11-18T14:27:32.051Z,41.42
2017-11-18T14:30:03.229Z,41.42
2017-11-18T14:32:32.525Z,41.51
2017-11-18T14:35:01.617Z,41.51
2017-11-18T14:37:30.737Z,41.49
2017-11-18T14:40:00.240Z,40.22
2017-11-18T14:45:00.433Z,38.17
2017-11-18T14:47:29.581Z,38.09
2017-11-18T14:49:58.949Z,37.95
2017-11-18T14:52:28.305Z,37.77
2017-11-18T14:54:57.461Z,37.94
2017-11-18T14:57:26.952Z,37.85
2017-11-18T14:59:56.482Z,38.02
2017-11-18T15:02:25.757Z,38.33
2017-11-18T15:04:55.393Z,37.76
2017-11-18T15:07:25.065Z,37.14
2017-11-18T15:09:54.581Z,36.78
2017-11-18T15:12:24.315Z,36.39
2017-11-18T15:14:53.545Z,36.11
2017-11-18T15:17:26.630Z,36.20
2017-11-18T15:19:59.973Z,36.59
2017-11-18T15:22:29.404Z,36.82
2017-11-18T15:25:02.529Z,36.85
2017-11-18T15:27:35.653Z,37.00
2017-11-18T15:30:05.433Z,37.23
2017-11-18T15:32:35.173Z,37.50
2017-11-18T15:35:04.766Z,37.77
2017-11-18T15:37:33.623Z,37.73
2017-11-18T15:40:03.289Z,37.75
2017-11-18T15:42:32.490Z,37.75
2017-11-18T15:45:01.707Z,37.67
2017-11-18T15:47:31.431Z,37.41
2017-11-18T15:50:02.334Z,36.91
2017-11-18T15:52:32.293Z,36.55
2017-11-18T15:55:04.244Z,36.12
2017-11-18T15:57:33.489Z,35.79
2017-11-18T16:00:02.644Z,35.60
2017-11-18T16:02:32.410Z,35.48
2017-11-18T16:05:01.565Z,35.38
2017-11-18T16:07:30.937Z,35.21
2017-11-18T16:10:00.433Z,34.99
2017-11-18T16:12:29.751Z,34.90
2017-11-18T16:14:59.288Z,34.92
2017-11-18T16:17:28.658Z,34.92
2017-11-18T16:19:57.936Z,34.94
2017-11-18T16:22:27.287Z,34.87
2017-11-18T16:24:56.477Z,34.84
2017-11-18T16:27:25.589Z,34.85
2017-11-18T16:29:55.042Z,34.91
2017-11-18T16:32:24.477Z,34.99
2017-11-18T16:34:53.826Z,35.09
2017-11-18T16:37:23.228Z,35.19
2017-11-18T16:39:52.509Z,35.34
2017-11-18T16:42:21.636Z,35.40
2017-11-18T16:44:50.938Z,35.45
2017-11-18T16:47:20.374Z,35.51
2017-11-18T16:49:49.471Z,35.54
2017-11-18T16:52:19.241Z,35.48
2017-11-18T16:54:48.404Z,35.47
2017-11-18T16:57:17.535Z,35.45
2017-11-18T16:59:47.020Z,35.35
2017-11-18T17:02:16.389Z,35.33
2017-11-18T17:04:45.608Z,35.34
2017-11-18T17:07:14.949Z,35.39
2017-11-18T17:09:44.297Z,35.40
2017-11-18T17:12:13.420Z,35.46
2017-11-18T17:16:51.508Z,35.49
2017-11-18T17:19:20.682Z,35.51
2017-11-18T17:21:49.971Z,35.67
2017-11-18T17:24:20.956Z,35.77
2017-11-18T17:26:50.398Z,35.90
2017-11-18T17:29:19.527Z,36.02
2017-11-18T17:31:49.202Z,36.17
2017-11-18T17:34:18.435Z,36.26
2017-11-18T17:36:47.799Z,36.38
2017-11-18T17:39:16.292Z,36.49
2017-11-18T17:41:45.465Z,36.59
2017-11-18T17:44:14.621Z,36.68
2017-11-18T17:46:44.047Z,36.78
2017-11-18T17:49:13.629Z,36.90
2017-11-18T17:51:43.286Z,36.97
2017-11-18T17:54:12.461Z,37.01
2017-11-18T17:56:41.656Z,37.06
2017-11-18T17:59:11.013Z,37.14
2017-11-18T18:01:40.458Z,37.08
2017-11-18T18:07:09.940Z,37.06
2017-11-18T18:09:39.302Z,37.12
2017-11-18T18:12:08.473Z,37.08
2017-11-18T18:14:37.674Z,37.07
2017-11-18T18:18:46.698Z,36.98
2017-11-18T18:21:15.983Z,36.92
2017-11-18T18:23:45.289Z,36.90
2017-11-18T18:26:14.426Z,36.89
2017-11-18T18:28:43.707Z,36.89
2017-11-18T18:31:13.069Z,36.85
2017-11-18T18:33:42.500Z,36.81
2017-11-18T18:36:11.651Z,36.81
2017-11-18T18:38:41.228Z,36.84
2017-11-18T18:41:10.379Z,36.93
2017-11-18T18:43:39.476Z,37.00
2017-11-18T18:46:08.597Z,37.01
2017-11-18T18:48:38.225Z,37.17
2017-11-18T18:51:07.411Z,37.20
2017-11-18T18:53:36.641Z,37.16
2017-11-18T18:56:06.275Z,37.19
2017-11-18T18:58:35.443Z,37.22
2017-11-18T19:01:04.614Z,37.29
2017-11-18T19:03:33.937Z,37.30
2017-11-18T19:08:22.516Z,37.33
2017-11-18T19:10:52.189Z,37.38
2017-11-18T19:13:21.431Z,37.40
2017-11-18T19:15:50.947Z,37.43
2017-11-18T19:18:20.651Z,37.48
2017-11-18T19:20:49.941Z,37.52
2017-11-18T19:23:19.424Z,37.53
2017-11-18T19:25:48.761Z,37.55
2017-11-18T19:28:18.279Z,37.76
2017-11-18T19:32:19.389Z,37.97
2017-11-18T19:34:48.466Z,38.18
2017-11-18T19:37:17.679Z,38.46
2017-11-18T19:39:47.304Z,38.59
2017-11-18T19:42:16.453Z,39.06
2017-11-18T19:44:45.637Z,39.37
2017-11-18T19:47:15.053Z,39.52
2017-11-18T19:49:44.497Z,39.62
2017-11-18T19:52:14.460Z,39.66
2017-11-18T19:57:30.947Z,39.63
2017-11-18T20:00:00.410Z,39.54
2017-11-18T20:02:29.630Z,39.51
2017-11-18T20:04:59.030Z,39.33
2017-11-18T20:07:28.397Z,39.24
2017-11-18T20:11:19.574Z,39.33
2017-11-18T20:13:48.741Z,39.35
2017-11-18T20:16:18.366Z,39.31
2017-11-18T20:18:47.629Z,39.24
2017-11-18T20:21:16.946Z,39.27
2017-11-18T20:23:46.353Z,39.38
2017-11-18T20:26:15.441Z,39.34
2017-11-18T20:28:45.253Z,39.32
2017-11-18T20:31:14.483Z,39.30
2017-11-18T20:33:43.602Z,39.40
2017-11-18T20:36:12.959Z,39.50
2017-11-18T20:38:42.357Z,39.41
2017-11-18T20:41:11.569Z,39.43
2017-11-18T20:43:41.410Z,39.55
2017-11-18T20:46:10.500Z,39.57
2017-11-18T20:48:39.621Z,39.57
2017-11-18T20:51:08.944Z,39.52
2017-11-18T20:53:38.288Z,39.50
2017-11-18T20:56:07.461Z,39.42
2017-11-18T20:58:40.363Z,39.31
2017-11-18T21:01:09.641Z,39.33
2017-11-18T21:03:40.813Z,39.43
2017-11-18T21:06:11.005Z,39.28
2017-11-18T21:08:40.528Z,39.18
2017-11-18T21:11:09.570Z,39.08
2017-11-18T21:13:39.172Z,39.13
2017-11-18T21:16:09.485Z,39.05
2017-11-18T21:18:38.551Z,38.97
2017-11-18T21:21:07.717Z,38.87
2017-11-18T21:23:37.020Z,38.89
2017-11-18T21:26:06.445Z,38.77
2017-11-18T21:28:35.543Z,38.84
2017-11-18T21:31:07.575Z,38.80
2017-11-18T21:33:37.604Z,38.83
2017-11-18T21:36:07.052Z,38.83
2017-11-18T21:38:36.483Z,38.83
2017-11-18T21:41:05.664Z,38.92
2017-11-18T21:43:35.245Z,39.06
2017-11-18T21:46:04.444Z,39.01
2017-11-18T21:48:33.612Z,38.99
2017-11-18T21:51:04.836Z,39.00
2017-11-18T21:53:34.463Z,39.03
2017-11-18T21:56:03.626Z,39.01
2017-11-18T21:58:33.285Z,39.00
2017-11-18T22:01:02.432Z,39.09
2017-11-18T22:03:31.534Z,39.23
2017-11-18T22:06:00.683Z,39.32
2017-11-18T22:08:30.064Z,39.40
2017-11-18T22:10:59.462Z,39.51
2017-11-18T22:13:28.590Z,39.58
2017-11-18T22:15:57.874Z,39.58
2017-11-18T22:18:27.465Z,39.56
2017-11-18T22:20:56.533Z,39.64
2017-11-18T22:23:25.676Z,39.71
2017-11-18T22:25:55.350Z,39.68
2017-11-18T22:28:24.595Z,39.63
2017-11-18T22:30:53.761Z,39.59
2017-11-18T22:33:23.404Z,39.55
2017-11-18T22:35:52.504Z,39.62
2017-11-18T22:38:21.711Z,39.57
2017-11-18T22:40:51.272Z,39.58
2017-11-18T22:43:22.605Z,39.63
2017-11-18T22:45:51.834Z,39.69
2017-11-18T22:48:21.294Z,39.69
2017-11-18T22:50:50.568Z,39.63
2017-11-18T22:53:19.725Z,39.64
2017-11-18T22:55:49.256Z,39.68
2017-11-18T22:58:18.436Z,39.71
2017-11-18T23:00:47.542Z,39.73
2017-11-18T23:03:16.645Z,39.72
2017-11-18T23:05:45.962Z,39.72
2017-11-18T23:08:17.546Z,39.69
2017-11-18T23:10:46.733Z,39.72
2017-11-18T23:13:16.269Z,39.77
2017-11-18T23:15:45.429Z,39.85
2017-11-18T23:18:14.692Z,39.91
2017-11-18T23:20:43.946Z,39.99
2017-11-18T23:23:13.249Z,40.14
2017-11-18T23:25:43.677Z,40.24
2017-11-18T23:28:17.661Z,40.32
2017-11-18T23:30:47.042Z,40.42
2017-11-18T23:33:16.404Z,40.45
2017-11-18T23:35:45.616Z,40.68
2017-11-18T23:38:15.028Z,40.75
2017-11-18T23:40:44.433Z,40.82
2017-11-18T23:43:13.545Z,40.97
2017-11-18T23:45:42.727Z,41.06
2017-11-18T23:48:12.028Z,41.14
2017-11-18T23:50:41.355Z,41.26
2017-11-18T23:53:10.458Z,41.37
2017-11-18T23:55:39.949Z,41.35
2017-11-18T23:58:09.450Z,41.37
